Time;durP1;ratioP1;P1;durP2;ratioP2;P2;SDS_P1;SDS_P2;PMS_P1;PMS_P2;Temp;Humidity;BMP_temperature;BMP_pressure;BME280_temperature;BME280_humidity;BME280_pressure;Samples;Min_cycle;Max_cycle;Signal;HPM_P1;HPM_P2
2022/08/20 00:00:57;;;;;;;;;6.00;3.00;;;;;20.93;100.00;101593.44;5033636;28;45228;-72
2022/08/20 00:03:30;;;;;;;;;5.00;4.00;;;;;20.91;100.00;101599.75;5016035;28;59206;-72
2022/08/20 00:05:58;;;;;;;;;2.00;2.00;;;;;20.83;100.00;101583.81;5026710;28;45456;-72
2022/08/20 00:08:24;;;;;;;;;5.33;2.67;;;;;20.86;100.00;101596.25;5018232;28;45687;-73
2022/08/20 00:10:50;;;;;;;;;1.67;1.67;;;;;20.67;100.00;101572.47;5029135;28;45556;-72
2022/08/20 00:13:20;;;;;;;;;3.00;3.00;;;;;20.79;100.00;101595.50;5034405;28;45492;-73
2022/08/20 00:15:46;;;;;;;;;4.33;3.33;;;;;20.77;100.00;101593.75;5024609;28;45469;-70
2022/08/20 00:18:12;;;;;;;;;4.67;3.00;;;;;20.75;100.00;101591.09;5016272;28;45327;-72
2022/08/20 00:20:41;;;;;;;;;4.00;2.00;;;;;20.72;100.00;101577.75;5024244;28;45287;-73
2022/08/20 00:23:06;;;;;;;;;3.33;3.33;;;;;20.68;100.00;101578.72;5021866;28;47682;-72
2022/08/20 00:25:32;;;;;;;;;5.67;4.00;;;;;20.67;100.00;101568.91;5019254;28;45504;-73
2022/08/20 00:27:58;;;;;;;;;6.67;4.00;;;;;20.64;100.00;101572.53;5025447;28;45505;-72
2022/08/20 00:30:24;;;;;;;;;6.33;2.67;;;;;20.63;100.00;101576.13;5031277;28;45352;-71
2022/08/20 00:32:52;;;;;;;;;3.00;3.00;;;;;20.58;100.00;101572.63;5022705;28;46685;-71
2022/08/20 00:35:20;;;;;;;;;5.33;4.33;;;;;20.61;100.00;101583.34;5029426;28;45288;-72
2022/08/20 00:37:46;;;;;;;;;6.00;4.00;;;;;20.62;100.00;101595.84;5033740;28;45244;-71
2022/08/20 00:40:15;;;;;;;;;4.00;2.67;;;;;20.61;100.00;101587.78;5019982;28;45494;-71
2022/08/20 00:42:43;;;;;;;;;4.00;4.00;;;;;20.54;100.00;101578.97;5023135;28;46467;-72
2022/08/20 00:45:09;;;;;;;;;3.67;3.00;;;;;20.55;100.00;101586.09;5024262;28;45485;-72
2022/08/20 00:47:34;;;;;;;;;7.67;4.67;;;;;20.51;100.00;101572.81;5027829;28;45255;-73
2022/08/20 00:50:00;;;;;;;;;7.00;4.00;;;;;20.49;100.00;101574.59;5025219;28;45270;-72
2022/08/20 00:52:26;;;;;;;;;6.00;3.33;;;;;20.51;100.00;101579.03;5015596;28;46382;-72
2022/08/20 00:54:57;;;;;;;;;7.67;3.00;;;;;20.47;100.00;101571.06;5030171;28;45430;-73
2022/08/20 00:57:25;;;;;;;;;6.33;3.67;;;;;20.51;100.00;101578.16;5031025;28;45288;-72
2022/08/20 00:59:51;;;;;;;;;4.00;3.00;;;;;20.47;100.00;101571.06;5025965;28;45376;-73
2022/08/20 01:02:18;;;;;;;;;3.67;3.67;;;;;20.47;100.00;101580.00;5023770;28;46344;-73
2022/08/20 01:04:53;;;;;;;;;6.33;3.33;;;;;20.39;100.00;101574.72;4999105;28;45379;-71
2022/08/20 01:07:31;;;;;;;;;3.67;3.67;;;;;20.38;100.00;101578.31;5021250;28;45477;-72
2022/08/20 01:09:57;;;;;;;;;5.00;3.67;;;;;20.37;100.00;101581.03;5017066;28;45478;-72
2022/08/20 01:12:23;;;;;;;;;5.00;2.00;;;;;20.35;100.00;101574.84;5009687;28;46606;-73
2022/08/20 01:14:49;;;;;;;;;3.67;3.00;;;;;20.33;100.00;101568.59;5018261;28;45233;-72
2022/08/20 01:17:22;;;;;;;;;9.33;3.33;;;;;20.35;100.00;101580.19;5020489;28;45341;-71
2022/08/20 01:19:52;;;;;;;;;8.00;2.00;;;;;20.29;100.00;101570.44;5001787;28;45550;-72
2022/08/20 01:25:18;;;;;;;;;5.67;4.00;;;;;20.24;100.00;101561.63;5015493;28;45445;-71
2022/08/20 01:27:44;;;;;;;;;4.00;4.00;;;;;20.24;100.00;101566.06;5022143;28;45557;-72
2022/08/20 01:30:10;;;;;;;;;3.67;3.00;;;;;20.08;100.00;101536.84;5012714;28;45265;-72
2022/08/20 01:32:35;;;;;;;;;5.67;3.00;;;;;20.22;100.00;101570.56;5027336;28;47321;-71
2022/08/20 01:35:01;;;;;;;;;5.00;3.00;;;;;20.20;100.00;101567.06;5016051;28;64048;-72
2022/08/20 01:37:26;;;;;;;;;4.00;2.00;;;;;20.22;100.00;101574.13;5026040;28;64452;-73
2022/08/20 01:39:52;;;;;;;;;4.67;2.67;;;;;20.21;100.00;101583.09;5036392;28;63686;-71
2022/08/20 01:42:29;;;;;;;;;2.33;2.33;;;;;20.21;100.00;101584.91;5009450;28;69289;-71
2022/08/20 01:44:54;;;;;;;;;3.67;3.67;;;;;20.20;100.00;101585.81;5038703;28;45450;-72
2022/08/20 01:47:26;;;;;;;;;4.33;3.33;;;;;20.18;100.00;101590.31;5018591;28;45515;-72
2022/08/20 01:49:55;;;;;;;;;3.67;3.67;;;;;20.17;100.00;101585.84;5012852;28;45546;-71
2022/08/20 01:52:27;;;;;;;;;4.33;1.67;;;;;20.13;100.00;101593.97;5016426;28;46859;-73
2022/08/20 01:54:53;;;;;;;;;2.67;2.67;;;;;20.08;100.00;101590.47;5017927;28;45299;-72
2022/08/20 01:57:20;;;;;;;;;4.00;2.00;;;;;20.06;100.00;101591.41;5029164;28;64314;-72
2022/08/20 01:59:47;;;;;;;;;5.67;2.67;;;;;20.03;100.00;101592.34;5011146;28;45544;-73
2022/08/20 02:02:12;;;;;;;;;4.00;2.67;;;;;20.05;100.00;101600.34;5017623;28;45616;-72
2022/08/20 02:04:39;;;;;;;;;3.67;2.33;;;;;20.02;100.00;101600.38;5028782;28;45157;-73
2022/08/20 02:07:07;;;;;;;;;4.00;2.33;;;;;19.99;100.00;101595.09;5020837;28;45533;-71
2022/08/20 02:09:35;;;;;;;;;7.00;2.67;;;;;19.99;100.00;101597.78;5018312;28;45509;-73
2022/08/20 02:12:02;;;;;;;;;6.33;3.00;;;;;19.92;100.00;101598.75;5025731;28;47336;-72
2022/08/20 02:14:28;;;;;;;;;10.67;4.00;;;;;19.89;100.00;101605.94;5018391;28;45498;-72
2022/08/20 02:16:53;;;;;;;;;7.33;3.33;;;;;19.89;100.00;101607.75;5028838;28;45341;-73
2022/08/20 02:19:22;;;;;;;;;6.00;3.00;;;;;19.91;100.00;101615.75;5025963;28;45652;-72
2022/08/20 02:21:52;;;;;;;;;4.67;3.33;;;;;19.83;100.00;101595.31;5023708;28;45514;-71
2022/08/20 02:24:18;;;;;;;;;9.67;5.33;;;;;19.82;100.00;101612.31;5030069;28;45466;-72
2022/08/20 02:26:43;;;;;;;;;6.00;3.33;;;;;19.78;100.00;101607.91;5011334;28;45312;-72
2022/08/20 02:29:11;;;;;;;;;4.33;2.67;;;;;19.82;100.00;101609.66;5021490;28;45229;-70
2022/08/20 02:31:38;;;;;;;;;6.33;2.00;;;;;19.83;100.00;101613.22;5028059;28;46427;-73
2022/08/20 02:34:04;;;;;;;;;4.00;1.67;;;;;19.77;100.00;101606.16;5025569;28;45366;-72
2022/08/20 02:36:31;;;;;;;;;4.33;4.33;;;;;19.73;100.00;101599.03;5017651;28;45501;-72
2022/08/20 02:38:56;;;;;;;;;2.33;2.33;;;;;19.79;100.00;101617.72;5034287;28;45544;-72
2022/08/20 02:41:21;;;;;;;;;10.33;3.00;;;;;19.71;100.00;101603.56;5015511;28;46066;-72
2022/08/20 02:43:48;;;;;;;;;5.67;2.67;;;;;19.71;100.00;101603.56;5018204;28;63079;-73
2022/08/20 02:46:14;;;;;;;;;3.67;2.00;;;;;19.73;100.00;101609.78;5019308;28;45596;-71
2022/08/20 02:48:40;;;;;;;;;6.67;4.00;;;;;19.70;100.00;101607.13;5023942;28;47050;-71
2022/08/20 02:51:06;;;;;;;;;2.67;1.67;;;;;19.71;100.00;101613.34;5024971;28;47420;-73
2022/08/20 02:53:34;;;;;;;;;4.67;2.67;;;;;19.69;100.00;101624.09;5031815;28;45368;-71
2022/08/20 02:56:00;;;;;;;;;7.00;2.67;;;;;19.67;100.00;101617.00;5017746;28;45454;-71
2022/08/20 02:58:26;;;;;;;;;6.00;4.00;;;;;19.61;100.00;101605.47;5017459;28;45319;-73
2022/08/20 03:00:52;;;;;;;;;5.67;2.33;;;;;19.61;100.00;101618.88;5030409;28;46639;-72
2022/08/20 03:03:22;;;;;;;;;4.00;2.67;;;;;19.62;100.00;101625.13;5034765;28;45325;-72
2022/08/20 03:05:51;;;;;;;;;7.33;3.00;;;;;19.57;100.00;101611.75;5023835;28;45394;-71
2022/08/20 03:08:16;;;;;;;;;5.33;3.00;;;;;19.61;100.00;101626.91;5027425;28;45629;-73
2022/08/20 03:10:44;;;;;;;;;3.67;3.00;;;;;19.58;100.00;101618.88;5029931;28;59453;-73
2022/08/20 03:13:11;;;;;;;;;5.33;3.00;;;;;19.54;100.00;101606.41;5017129;28;45564;-72
2022/08/20 03:15:41;;;;;;;;;4.67;4.33;;;;;19.43;100.00;101596.75;5024820;28;45337;-71
2022/08/20 03:18:07;;;;;;;;;4.67;2.33;;;;;19.53;100.00;101617.16;5028832;28;45506;-72
2022/08/20 03:20:33;;;;;;;;;4.00;3.33;;;;;19.48;100.00;101613.66;5019688;28;46630;-72
2022/08/20 03:22:59;;;;;;;;;8.00;4.33;;;;;19.43;100.00;101604.78;5005681;28;45570;-72
2022/08/20 03:25:24;;;;;;;;;4.33;3.00;;;;;19.41;100.00;101612.84;5027994;28;56890;-72
2022/08/20 03:27:49;;;;;;;;;2.67;2.67;;;;;19.44;100.00;101617.28;5027303;28;45504;-70
2022/08/20 03:30:15;;;;;;;;;6.00;4.00;;;;;19.43;100.00;101619.06;5021968;28;65903;-72
2022/08/20 03:32:41;;;;;;;;;6.33;2.33;;;;;19.25;100.00;101582.72;5027734;28;45637;-71
2022/08/20 03:35:09;;;;;;;;;7.00;2.33;;;;;19.35;100.00;101613.81;5025586;28;45409;-72
2022/08/20 03:37:35;;;;;;;;;5.33;3.67;;;;;19.36;100.00;101618.25;5034619;28;45342;-71
2022/08/20 03:40:03;;;;;;;;;2.33;2.33;;;;;19.32;100.00;101607.59;5027725;28;46608;-71
2022/08/20 03:42:28;;;;;;;;;5.67;3.33;;;;;19.34;100.00;101621.88;5027120;28;45410;-71
2022/08/20 03:44:53;;;;;;;;;3.00;3.00;;;;;19.34;100.00;101616.53;5031574;28;55586;-73
2022/08/20 03:47:19;;;;;;;;;6.00;3.00;;;;;19.31;100.00;101616.56;5021255;28;45370;-71
2022/08/20 03:49:45;;;;;;;;;6.67;3.33;;;;;19.32;100.00;101629.03;5020298;28;45447;-71
2022/08/20 03:52:10;;;;;;;;;5.00;3.33;;;;;19.31;100.00;101628.16;5024186;28;45499;-72
2022/08/20 03:54:36;;;;;;;;;8.67;4.33;;;;;19.26;100.00;101613.03;5017855;28;45397;-71
2022/08/20 03:57:01;;;;;;;;;6.00;3.00;;;;;19.26;100.00;101630.00;5021903;28;61950;-72
2022/08/20 03:59:27;;;;;;;;;5.00;4.00;;;;;19.18;100.00;101621.19;5023301;28;46474;-73
2022/08/20 04:01:53;;;;;;;;;6.67;3.00;;;;;19.19;100.00;101624.75;5024004;28;45586;-72
2022/08/20 04:04:19;;;;;;;;;5.33;3.33;;;;;19.17;100.00;101635.44;5016994;28;45629;-71
2022/08/20 04:06:46;;;;;;;;;5.00;3.00;;;;;19.10;100.00;101629.28;5008483;28;45736;-72
2022/08/20 04:09:13;;;;;;;;;5.33;4.00;;;;;19.07;100.00;101621.31;5018628;28;46763;-72
2022/08/20 04:11:41;;;;;;;;;3.00;3.00;;;;;19.10;100.00;101636.44;5028525;28;45511;-72
2022/08/20 04:14:07;;;;;;;;;4.00;2.00;;;;;19.01;100.00;101629.38;5026024;28;45339;-71
2022/08/20 04:16:32;;;;;;;;;7.33;4.00;;;;;19.03;100.00;101632.06;5027437;28;45438;-71
2022/08/20 04:18:58;;;;;;;;;4.00;3.00;;;;;19.01;100.00;101631.19;5022744;28;52955;-72
2022/08/20 04:21:23;;;;;;;;;7.00;5.00;;;;;18.94;100.00;101621.44;5015715;28;68502;-72
2022/08/20 04:23:49;;;;;;;;;4.00;3.67;;;;;18.87;100.00;101617.09;5029028;28;56711;-71
2022/08/20 04:26:15;;;;;;;;;3.67;2.33;;;;;18.95;100.00;101629.44;5024948;28;45379;-73
2022/08/20 04:28:40;;;;;;;;;3.67;3.00;;;;;18.91;100.00;101627.75;5027270;28;46709;-71
2022/08/20 04:31:06;;;;;;;;;7.67;3.00;;;;;18.84;100.00;101621.53;5034494;28;45458;-71
2022/08/20 04:33:31;;;;;;;;;5.33;3.00;;;;;18.89;100.00;101629.53;5024864;28;45307;-71
2022/08/20 04:36:01;;;;;;;;;4.33;3.00;;;;;18.81;100.00;101616.25;5016780;28;45346;-72
2022/08/20 04:38:27;;;;;;;;;5.00;3.00;;;;;18.82;100.00;101626.03;5018308;28;46184;-71
2022/08/20 04:40:53;;;;;;;;;6.00;3.00;;;;;18.84;100.00;101629.56;5020899;28;45319;-71
2022/08/20 04:43:30;;;;;;;;;5.33;3.67;;;;;18.83;100.00;101624.25;5026352;28;45494;-71
2022/08/20 04:45:56;;;;;;;;;5.00;3.00;;;;;18.77;100.00;101622.53;5027048;28;45638;-72
2022/08/20 04:48:24;;;;;;;;;9.00;4.00;;;;;18.77;100.00;101621.63;5020705;28;46046;-71
2022/08/20 04:50:50;;;;;;;;;4.67;3.00;;;;;18.82;100.00;101627.81;5023047;28;45610;-71
2022/08/20 04:53:17;;;;;;;;;8.00;4.00;;;;;18.79;100.00;101631.41;5023432;28;45875;-72
2022/08/20 04:55:44;;;;;;;;;5.00;2.33;;;;;18.79;100.00;101638.56;5022834;28;45373;-73
2022/08/20 04:58:17;;;;;;;;;5.33;3.00;;;;;18.70;100.00;101617.25;5015852;28;46470;-71
2022/08/20 05:00:54;;;;;;;;;4.33;2.67;;;;;18.72;100.00;101621.69;5025635;28;45434;-73
2022/08/20 05:03:20;;;;;;;;;5.00;2.00;;;;;18.76;100.00;101639.47;5020166;28;45304;-72
2022/08/20 05:05:45;;;;;;;;;7.67;4.00;;;;;18.79;100.00;101643.91;5020702;28;45557;-71
2022/08/20 05:08:11;;;;;;;;;4.33;2.00;;;;;18.72;100.00;101635.06;5028627;28;45362;-70
2022/08/20 05:10:38;;;;;;;;;9.00;4.00;;;;;18.72;100.00;101642.19;5017941;28;45209;-71
2022/08/20 05:13:05;;;;;;;;;5.33;4.00;;;;;18.77;100.00;101656.41;5017369;28;45333;-71
2022/08/20 05:15:30;;;;;;;;;6.00;3.67;;;;;18.76;100.00;101654.66;5026239;28;45542;-72
2022/08/20 05:17:59;;;;;;;;;6.67;4.00;;;;;18.74;100.00;101654.66;5018926;28;57947;-72
2022/08/20 05:20:30;;;;;;;;;8.33;3.00;;;;;18.76;100.00;101660.88;5019129;28;45376;-71
2022/08/20 05:22:55;;;;;;;;;10.67;4.33;;;;;18.73;100.00;101654.66;5032298;28;45260;-71
2022/08/20 05:25:20;;;;;;;;;5.67;3.00;;;;;18.69;100.00;101645.78;5030939;28;45727;-70
2022/08/20 05:27:46;;;;;;;;;4.00;4.00;;;;;18.69;100.00;101645.78;5031310;28;46412;-72
2022/08/20 05:30:11;;;;;;;;;4.67;3.00;;;;;18.70;100.00;101644.91;5028152;28;45540;-72
2022/08/20 05:32:38;;;;;;;;;7.00;4.00;;;;;18.76;100.00;101660.88;5035026;28;45314;-71
2022/08/20 05:35:06;;;;;;;;;4.00;3.00;;;;;18.71;100.00;101652.00;5035710;28;45638;-72
2022/08/20 05:37:34;;;;;;;;;7.67;3.33;;;;;18.66;100.00;101644.91;5019873;28;46561;-71
2022/08/20 05:39:59;;;;;;;;;7.00;4.00;;;;;18.73;100.00;101652.00;5019012;28;45422;-71
2022/08/20 05:42:28;;;;;;;;;5.00;3.67;;;;;18.72;100.00;101656.47;5028354;28;62767;-72
2022/08/20 05:44:53;;;;;;;;;6.67;4.00;;;;;18.78;100.00;101668.88;5034586;28;45454;-72
2022/08/20 05:47:18;;;;;;;;;6.33;4.00;;;;;18.63;100.00;101647.59;5021989;28;70953;-72
2022/08/20 05:49:45;;;;;;;;;8.33;4.00;;;;;18.76;100.00;101670.69;5024736;28;45405;-71
2022/08/20 05:52:10;;;;;;;;;7.67;6.00;;;;;18.77;100.00;101667.13;5026808;28;45311;-71
2022/08/20 05:54:36;;;;;;;;;5.67;3.00;;;;;18.75;100.00;101658.19;5031092;28;47812;-71
2022/08/20 05:57:02;;;;;;;;;4.00;4.00;;;;;18.80;100.00;101672.41;5032969;28;47389;-73
2022/08/20 05:59:28;;;;;;;;;5.33;4.33;;;;;18.74;100.00;101660.00;5018684;28;45462;-72
2022/08/20 06:01:53;;;;;;;;;5.00;3.33;;;;;18.77;100.00;101662.66;5023646;28;45485;-71
2022/08/20 06:04:26;;;;;;;;;6.33;3.33;;;;;18.84;100.00;101675.06;5019833;28;57779;-71
2022/08/20 06:06:54;;;;;;;;;5.00;4.00;;;;;18.82;100.00;101671.53;5023739;28;47447;-73
2022/08/20 06:09:22;;;;;;;;;3.33;3.33;;;;;18.88;100.00;101686.63;5025718;28;45390;-72
2022/08/20 06:11:48;;;;;;;;;4.00;3.00;;;;;18.89;100.00;101684.84;5019443;28;45389;-73
2022/08/20 06:14:15;;;;;;;;;7.33;3.00;;;;;18.88;100.00;101689.31;5017973;28;54322;-73
2022/08/20 06:16:41;;;;;;;;;5.00;4.33;;;;;18.83;100.00;101673.28;5033660;28;46509;-73
2022/08/20 06:19:07;;;;;;;;;3.67;3.00;;;;;18.90;100.00;101697.31;5023952;28;45295;-73
2022/08/20 06:21:32;;;;;;;;;3.33;3.00;;;;;18.93;100.00;101689.28;5026229;28;45498;-71
2022/08/20 06:23:57;;;;;;;;;8.67;4.00;;;;;18.86;100.00;101688.44;5027687;28;45481;-71
2022/08/20 06:26:23;;;;;;;;;5.00;3.67;;;;;18.93;100.00;101697.28;5022203;28;64981;-71
2022/08/20 06:28:48;;;;;;;;;4.33;4.00;;;;;18.93;100.00;101695.50;5027168;28;61724;-70
2022/08/20 06:31:13;;;;;;;;;6.67;4.00;;;;;18.90;100.00;101683.94;5029702;28;56715;-71
2022/08/20 06:33:39;;;;;;;;;3.67;2.67;;;;;18.91;100.00;101685.69;5030049;28;58882;-71
2022/08/20 06:36:05;;;;;;;;;9.33;4.00;;;;;18.94;100.00;101691.03;5029144;28;68109;-71
2022/08/20 06:38:31;;;;;;;;;6.00;4.00;;;;;18.95;100.00;101687.44;5025983;28;46261;-74
2022/08/20 06:40:57;;;;;;;;;5.33;2.67;;;;;18.97;100.00;101689.22;5028909;28;45671;-74
2022/08/20 06:43:23;;;;;;;;;4.00;4.00;;;;;18.97;100.00;101691.03;5028291;28;45453;-73
2022/08/20 06:45:48;;;;;;;;;3.33;2.67;;;;;19.01;100.00;101687.38;5030432;28;45587;-73
2022/08/20 06:48:13;;;;;;;;;6.67;3.00;;;;;19.06;100.00;101696.25;5036505;28;57642;-73
2022/08/20 06:50:42;;;;;;;;;13.67;4.00;;;;;19.08;100.00;101697.16;5022670;28;45405;-72
2022/08/20 06:53:09;;;;;;;;;11.67;4.33;;;;;19.06;100.00;101699.81;5031433;28;47009;-72
2022/08/20 06:55:36;;;;;;;;;6.67;2.00;;;;;19.06;100.00;101693.56;5027244;28;45485;-73
2022/08/20 06:58:07;;;;;;;;;3.67;3.67;;;;;19.11;100.00;101689.06;5011062;28;45531;-73
2022/08/20 07:00:34;;;;;;;;;5.67;4.33;;;;;19.14;100.00;101699.75;5020818;28;45382;-72
2022/08/20 07:03:00;;;;;;;;;5.67;2.67;;;;;19.15;100.00;101682.78;5032942;28;45885;-72
2022/08/20 07:05:28;;;;;;;;;6.33;3.33;;;;;19.19;100.00;101689.00;5029068;28;47317;-72
2022/08/20 07:07:53;;;;;;;;;5.67;4.00;;;;;19.22;100.00;101696.97;5026113;28;45551;-75
2022/08/20 07:10:20;;;;;;;;;4.67;3.00;;;;;19.27;100.00;101692.47;5017387;28;45378;-72
2022/08/20 07:12:45;;;;;;;;;5.00;3.33;;;;;19.30;100.00;101693.31;5027593;28;45906;-71
2022/08/20 07:15:12;;;;;;;;;4.67;3.00;;;;;19.30;100.00;101697.81;5027062;28;46247;-74
2022/08/20 07:17:38;;;;;;;;;4.00;4.00;;;;;19.27;100.00;101689.78;5022499;28;45396;-73
2022/08/20 07:20:09;;;;;;;;;3.00;2.00;;;;;19.31;100.00;101689.75;5034829;28;45494;-73
2022/08/20 07:22:35;;;;;;;;;4.67;2.33;;;;;19.40;100.00;101696.78;5023406;28;45650;-72
2022/08/20 07:27:36;;;;;;;;;2.00;2.00;;;;;19.44;100.00;101684.22;5072015;22;45621;-72
2022/08/20 07:32:48;;;;;;;;;4.33;2.33;;;;;19.56;100.00;101692.13;5031675;28;45510;-72
2022/08/20 07:35:15;;;;;;;;;3.33;3.33;;;;;19.57;100.00;101693.91;5035292;28;46304;-72
2022/08/20 07:37:43;;;;;;;;;1.67;1.67;;;;;19.65;100.00;101704.53;5015989;28;45730;-71
2022/08/20 07:40:15;;;;;;;;;4.33;3.00;;;;;19.69;100.00;101717.00;5033648;28;45323;-73
2022/08/20 07:42:41;;;;;;;;;5.67;2.67;;;;;19.67;100.00;101706.31;5032734;28;45561;-71
2022/08/20 07:45:09;;;;;;;;;5.00;3.67;;;;;19.70;100.00;101719.66;5035255;28;46915;-69
2022/08/20 07:47:36;;;;;;;;;3.67;3.00;;;;;19.69;100.00;101717.00;5029311;28;45433;-71
2022/08/20 07:50:02;;;;;;;;;4.00;4.00;;;;;19.60;100.00;101716.22;5032708;28;45546;-70
2022/08/20 07:52:28;;;;;;;;;5.00;4.67;;;;;19.53;100.00;101710.91;5030403;28;45331;-70
2022/08/20 07:54:53;;;;;;;;;7.00;4.00;;;;;19.55;100.00;101709.13;5035109;28;51890;-71
2022/08/20 07:57:18;;;;;;;;;5.00;2.67;;;;;19.56;100.00;101718.94;5030237;28;45345;-73
2022/08/20 07:59:45;;;;;;;;;8.00;3.00;;;;;19.48;100.00;101708.28;5036271;28;45446;-72
2022/08/20 08:02:11;;;;;;;;;7.00;4.33;;;;;19.57;100.00;101721.59;5036907;28;45469;-71
2022/08/20 08:04:37;;;;;;;;;8.00;4.00;;;;;19.58;100.00;101722.47;5034688;28;47337;-74
2022/08/20 08:07:03;;;;;;;;;3.00;2.67;;;;;19.60;100.00;101728.72;5035517;28;45379;-72
2022/08/20 08:09:28;;;;;;;;;6.67;4.00;;;;;19.57;100.00;101721.59;5018914;28;45477;-72
2022/08/20 08:11:56;;;;;;;;;3.33;3.00;;;;;19.62;100.00;101710.84;5035626;28;60895;-72
2022/08/20 08:14:25;;;;;;;;;2.33;2.33;;;;;19.66;100.00;101717.94;5036100;28;45820;-71
2022/08/20 08:16:53;;;;;;;;;7.00;4.00;;;;;19.72;100.00;101728.59;5018906;28;45377;-71
2022/08/20 08:19:19;;;;;;;;;3.67;3.00;;;;;19.69;100.00;101715.22;5018962;28;45518;-72
2022/08/20 08:21:44;;;;;;;;;6.33;1.67;;;;;19.71;100.00;101717.88;5034835;28;45648;-71
2022/08/20 08:24:10;;;;;;;;;8.00;4.00;;;;;19.80;100.00;101731.16;5034416;28;72190;-72
2022/08/20 08:26:35;;;;;;;;;3.33;2.67;;;;;19.87;100.00;101727.50;5039040;28;45664;-72
2022/08/20 08:29:01;;;;;;;;;5.33;2.00;;;;;19.90;100.00;101727.44;5022147;28;45512;-71
2022/08/20 08:31:26;;;;;;;;;3.00;2.33;;;;;19.91;100.00;101717.63;5037879;28;45550;-71
2022/08/20 08:33:52;;;;;;;;;8.33;4.00;;;;;19.92;100.00;101720.31;5034788;28;53227;-72
2022/08/20 08:36:17;;;;;;;;;5.67;2.33;;;;;19.98;100.00;101725.56;5034310;28;61686;-72
2022/08/20 08:38:44;;;;;;;;;3.67;3.00;;;;;19.97;100.00;101726.44;5035156;28;58804;-73
2022/08/20 08:41:17;;;;;;;;;14.00;4.00;;;;;20.03;100.00;101725.50;5034967;28;45453;-71
2022/08/20 08:43:45;;;;;;;;;4.00;3.67;;;;;20.08;100.00;101723.63;5035489;28;45674;-72
2022/08/20 08:46:11;;;;;;;;;4.00;3.00;;;;;20.14;100.00;101728.94;5035309;28;45303;-72
2022/08/20 08:48:44;;;;;;;;;5.00;2.00;;;;;20.22;100.00;101728.81;5038684;28;45504;-73
2022/08/20 08:51:11;;;;;;;;;9.67;2.00;;;;;20.27;100.00;101732.31;5021278;28;45345;-74
2022/08/20 08:53:53;;;;;;;;;9.00;3.33;;;;;20.27;100.00;101711.72;5037530;28;46419;-72
2022/08/20 08:56:28;;;;;;;;;4.00;2.67;;;;;20.23;100.00;101693.03;5039766;28;45417;-75
2022/08/20 08:59:00;;;;;;;;;4.33;3.00;;;;;20.38;100.00;101707.09;5038100;28;45546;-72
2022/08/20 09:01:26;;;;;;;;;6.00;3.00;;;;;20.51;100.00;101715.00;5021637;28;45671;-72
2022/08/20 09:03:51;;;;;;;;;7.67;4.00;;;;;20.51;100.00;101710.50;5021739;28;45560;-74
2022/08/20 09:06:20;;;;;;;;;5.67;4.00;;;;;20.56;100.00;101714.00;5039109;28;63393;-73
2022/08/20 09:08:49;;;;;;;;;6.00;3.00;;;;;20.58;100.00;101703.25;5039581;28;45263;-73
2022/08/20 09:11:16;;;;;;;;;6.00;2.67;;;;;20.69;100.00;101716.47;5026950;28;45204;-72
2022/08/20 09:13:42;;;;;;;;;4.00;1.67;;;;;20.67;100.00;101706.66;5020438;28;46558;-72
2022/08/20 09:16:08;;;;;;;;;2.33;2.33;;;;;20.76;100.00;101710.97;5033212;28;45355;-71
2022/08/20 09:18:33;;;;;;;;;6.33;3.00;;;;;20.80;100.00;101719.88;5038259;28;45314;-73
2022/08/20 09:20:58;;;;;;;;;7.67;4.00;;;;;20.83;100.00;101719.81;5038932;28;45468;-70
2022/08/20 09:23:24;;;;;;;;;2.00;2.00;;;;;20.87;100.00;101711.66;5028929;28;68185;-74
2022/08/20 09:25:49;;;;;;;;;6.00;3.00;;;;;20.89;100.00;101698.25;5036845;28;65548;-72
2022/08/20 09:28:14;;;;;;;;;4.00;2.00;;;;;20.98;100.00;101708.78;5040234;28;45354;-70
2022/08/20 09:30:40;;;;;;;;;4.67;1.00;;;;;21.02;100.00;101706.94;5037845;28;60987;-74
2022/08/20 09:33:05;;;;;;;;;5.33;2.67;;;;;21.07;100.00;101708.63;5038070;28;47280;-74
2022/08/20 09:35:30;;;;;;;;;3.00;3.00;;;;;21.09;100.00;101705.91;5037638;28;66898;-73
2022/08/20 09:37:56;;;;;;;;;5.00;2.00;;;;;21.14;100.00;101704.03;5038265;28;45434;-71
2022/08/20 09:40:21;;;;;;;;;7.33;1.00;;;;;21.12;100.00;101698.69;5037361;28;45659;-73
2022/08/20 09:42:48;;;;;;;;;5.33;3.00;;;;;21.14;100.00;101690.59;5037886;28;46288;-75
2022/08/20 09:45:13;;;;;;;;;6.67;3.00;;;;;21.18;100.00;101695.00;5037916;28;45475;-72
2022/08/20 09:47:40;;;;;;;;;6.67;1.67;;;;;21.23;100.00;101693.13;5037574;28;45347;-72
2022/08/20 09:50:06;;;;;;;;;6.00;1.00;;;;;21.33;100.00;101704.59;5038131;28;45463;-74
2022/08/20 09:52:38;;;;;;;;;3.00;1.67;;;;;21.35;100.00;101697.38;5037875;28;46205;-74
2022/08/20 09:55:15;;;;;;;;;4.33;2.00;;;;;21.48;100.00;101704.31;5020360;28;45186;-71
2022/08/20 09:57:41;;;;;;;;;1.00;1.00;;;;;21.66;100.00;101711.09;5005761;28;45355;-72
2022/08/20 10:00:08;;;;;;;;;3.00;2.00;;;;;21.74;100.00;101703.75;5037396;28;46323;-74
2022/08/20 10:02:34;;;;;;;;;2.00;2.00;;;;;21.76;100.00;101683.09;5037930;28;46743;-73
2022/08/20 10:04:59;;;;;;;;;9.67;2.67;;;;;21.98;100.00;101697.81;5036711;28;62023;-72
2022/08/20 10:07:25;;;;;;;;;1.00;1.00;;;;;22.07;97.51;101699.44;5003096;28;64509;-72
2022/08/20 10:09:50;;;;;;;;;2.67;2.00;;;;;22.05;94.48;101687.84;5037798;28;45617;-71
2022/08/20 10:12:15;;;;;;;;;4.00;2.00;;;;;22.04;94.72;101685.16;5037196;28;52274;-74
2022/08/20 10:14:41;;;;;;;;;4.00;2.00;;;;;22.11;95.54;101690.41;5035559;28;47176;-72
2022/08/20 10:17:06;;;;;;;;;4.67;3.00;;;;;22.12;96.21;101699.38;5035686;28;45313;-72
2022/08/20 10:19:32;;;;;;;;;4.00;2.00;;;;;22.15;94.85;101693.91;5020003;28;45674;-71
2022/08/20 10:21:58;;;;;;;;;4.00;2.00;;;;;22.13;95.61;101669.75;5037927;28;45542;-72
2022/08/20 10:24:23;;;;;;;;;2.33;2.00;;;;;22.26;92.94;101680.19;5034697;28;45517;-74
2022/08/20 10:26:49;;;;;;;;;3.67;2.00;;;;;22.22;92.15;101676.72;5036272;28;45563;-72
2022/08/20 10:29:15;;;;;;;;;3.33;3.00;;;;;22.22;92.21;101674.91;5036956;28;59653;-71
2022/08/20 10:31:40;;;;;;;;;4.00;2.00;;;;;22.27;91.38;101682.88;5036795;28;46303;-72
2022/08/20 10:34:06;;;;;;;;;2.00;2.00;;;;;22.31;91.96;101681.84;5038410;28;45465;-71
2022/08/20 10:36:31;;;;;;;;;3.00;3.00;;;;;22.27;90.63;101669.41;5037206;28;45646;-74
2022/08/20 10:38:57;;;;;;;;;3.67;3.67;;;;;22.32;91.16;101672.88;5037266;28;45560;-72
2022/08/20 10:41:22;;;;;;;;;3.33;3.33;;;;;22.38;91.43;101679.91;5036071;28;68259;-71
2022/08/20 10:43:47;;;;;;;;;3.67;2.00;;;;;22.38;89.77;101671.84;5037219;28;45472;-72
2022/08/20 10:46:13;;;;;;;;;3.33;3.00;;;;;22.33;89.91;101668.38;5036219;28;60931;-71
2022/08/20 10:48:39;;;;;;;;;4.00;3.00;;;;;22.34;88.93;101662.97;5038061;28;45244;-73
2022/08/20 10:51:05;;;;;;;;;7.67;2.00;;;;;22.41;85.80;101664.56;5037232;28;68565;-70
2022/08/20 10:53:30;;;;;;;;;2.67;2.00;;;;;22.46;87.44;101665.34;5035385;28;47350;-72
2022/08/20 10:55:56;;;;;;;;;2.00;2.00;;;;;22.52;87.11;101658.91;5037662;28;45227;-71
2022/08/20 10:58:22;;;;;;;;;2.00;2.00;;;;;22.62;86.51;101662.25;5036939;28;45698;-71
2022/08/20 11:00:47;;;;;;;;;3.00;2.00;;;;;22.63;83.76;101650.56;5036997;28;47656;-73
2022/08/20 11:03:13;;;;;;;;;1.67;1.67;;;;;22.67;82.53;101661.22;5036610;28;51011;-72
2022/08/20 11:05:38;;;;;;;;;3.00;2.00;;;;;22.69;83.04;101659.38;5018693;28;45413;-71
2022/08/20 11:08:04;;;;;;;;;6.33;3.00;;;;;22.74;82.66;101664.63;5038724;28;45187;-71
2022/08/20 11:10:32;;;;;;;;;5.00;3.00;;;;;22.74;82.23;101657.47;5039288;28;46218;-72
2022/08/20 11:12:59;;;;;;;;;1.67;1.67;;;;;22.86;82.32;101668.81;5037192;28;45603;-72
2022/08/20 11:15:25;;;;;;;;;2.00;2.00;;;;;22.95;82.19;101671.28;5035254;28;45449;-71
2022/08/20 11:17:50;;;;;;;;;2.00;2.00;;;;;22.98;83.48;101664.00;5036596;28;45485;-71
2022/08/20 11:20:17;;;;;;;;;3.33;2.00;;;;;23.11;83.17;101669.94;5036974;28;46373;-72
2022/08/20 11:22:43;;;;;;;;;2.67;2.00;;;;;23.25;84.39;101669.56;5036398;28;45485;-74